createdAt,value
2019-04-05T00:02:39.284Z,65.95
2019-04-05T00:05:26.641Z,66.10
2019-04-05T00:08:14.064Z,66.13
2019-04-05T00:11:01.707Z,67.20
2019-04-05T00:13:49.056Z,66.57
2019-04-05T00:16:36.165Z,66.37
2019-04-05T00:19:23.580Z,65.67
2019-04-05T00:22:11.189Z,65.69
2019-04-05T00:24:58.682Z,65.64
2019-04-05T00:27:46.770Z,65.17
2019-04-05T00:30:34.523Z,66.24
2019-04-05T00:33:22.594Z,66.58
2019-04-05T00:36:10.427Z,66.16
2019-04-05T00:38:57.844Z,67.05
2019-04-05T00:41:45.568Z,67.21
2019-04-05T00:44:32.811Z,66.33
2019-04-05T00:47:20.437Z,65.87
2019-04-05T00:50:08.466Z,66.24
2019-04-05T00:52:55.947Z,66.23
2019-04-05T00:55:43.360Z,65.55
2019-04-05T00:58:31.084Z,65.69
2019-04-05T01:01:18.453Z,65.71
2019-04-05T01:04:06.244Z,65.47
2019-04-05T01:06:53.714Z,65.02
2019-04-05T01:09:41.194Z,65.63
2019-04-05T01:12:28.860Z,66.03
2019-04-05T01:15:17.249Z,65.53
2019-04-05T01:18:04.997Z,65.81
2019-04-05T01:20:54.221Z,65.36
2019-04-05T01:23:41.298Z,66.14
2019-04-05T01:26:28.565Z,65.91
2019-04-05T01:29:15.744Z,65.71
2019-04-05T01:32:03.078Z,65.68
2019-04-05T01:34:50.737Z,65.58
2019-04-05T01:37:38.595Z,65.88
2019-04-05T01:40:27.443Z,65.28
2019-04-05T01:43:15.328Z,65.51
2019-04-05T01:46:03.200Z,64.92
2019-04-05T01:48:50.687Z,65.43
2019-04-05T01:51:37.857Z,65.95
2019-04-05T01:54:25.468Z,65.76
2019-04-05T01:57:13.254Z,65.79
2019-04-05T02:00:00.578Z,65.78
2019-04-05T02:02:48.181Z,65.82
2019-04-05T02:05:35.943Z,66.25
2019-04-05T02:08:23.343Z,65.83
2019-04-05T02:11:10.752Z,65.87
2019-04-05T02:13:58.379Z,66.05
2019-04-05T02:16:45.960Z,66.15
2019-04-05T02:19:33.396Z,66.91
2019-04-05T02:22:20.970Z,67.76
2019-04-05T02:25:08.555Z,67.30
2019-04-05T02:27:56.466Z,66.81
2019-04-05T02:30:43.869Z,66.82
2019-04-05T02:33:31.285Z,66.75
2019-04-05T02:36:18.811Z,66.77
2019-04-05T02:39:07.398Z,66.97
2019-04-05T02:41:56.902Z,66.48
2019-04-05T02:44:45.807Z,66.58
2019-04-05T02:47:34.014Z,66.29
2019-04-05T02:50:21.835Z,66.25
2019-04-05T02:53:11.388Z,65.58
2019-04-05T02:56:02.761Z,65.85
2019-04-05T02:58:48.800Z,65.94
2019-04-05T03:01:36.717Z,65.78
2019-04-05T03:04:24.548Z,65.66
2019-04-05T03:07:13.129Z,65.87
2019-04-05T03:10:00.878Z,65.95
2019-04-05T03:12:48.699Z,65.48
2019-04-05T03:15:36.262Z,65.78
2019-04-05T03:18:23.965Z,65.41
2019-04-05T03:21:13.126Z,65.37
2019-04-05T03:24:03.555Z,65.40
2019-04-05T03:26:56.585Z,65.38
2019-04-05T03:29:44.213Z,65.76
2019-04-05T03:32:31.919Z,66.00
2019-04-05T03:35:19.433Z,66.42
2019-04-05T03:38:07.738Z,66.30
2019-04-05T03:40:55.538Z,66.34
2019-04-05T03:43:42.898Z,66.03
2019-04-05T03:46:30.767Z,65.63
2019-04-05T03:49:18.994Z,65.36
2019-04-05T03:52:07.219Z,64.48
2019-04-05T03:54:54.988Z,64.31
2019-04-05T03:57:42.790Z,64.56
2019-04-05T04:00:30.343Z,65.12
2019-04-05T04:03:18.218Z,65.97
2019-04-05T04:06:06.107Z,66.02
2019-04-05T04:08:53.482Z,66.47
2019-04-05T04:11:41.041Z,66.93
2019-04-05T04:14:29.453Z,67.78
2019-04-05T04:17:17.540Z,67.17
2019-04-05T04:20:05.464Z,67.54
2019-04-05T04:22:53.014Z,67.38
2019-04-05T04:25:41.547Z,67.50
2019-04-05T04:28:29.985Z,68.11
2019-04-05T04:31:17.677Z,68.22
2019-04-05T04:34:06.688Z,68.47
2019-04-05T04:36:54.335Z,68.70
2019-04-05T04:39:42.080Z,69.06
2019-04-05T04:42:29.850Z,68.97
2019-04-05T04:45:18.125Z,68.61
2019-04-05T04:48:05.603Z,68.54
2019-04-05T04:50:53.518Z,68.52
2019-04-05T04:53:41.034Z,68.17
2019-04-05T04:56:29.113Z,68.23
2019-04-05T04:59:16.945Z,67.96
2019-04-05T05:02:04.645Z,68.07
2019-04-05T05:04:52.581Z,68.18
2019-04-05T05:07:40.722Z,68.91
2019-04-05T05:10:28.275Z,68.67
2019-04-05T05:13:15.530Z,68.16
2019-04-05T05:16:03.225Z,67.84
2019-04-05T05:18:51.002Z,67.78
2019-04-05T05:21:38.778Z,66.82
2019-04-05T05:24:27.211Z,65.96
2019-04-05T05:27:14.870Z,66.47
2019-04-05T05:30:02.479Z,66.06
2019-04-05T05:32:50.425Z,66.00
2019-04-05T05:35:37.907Z,65.46
2019-04-05T05:38:25.881Z,65.43
2019-04-05T05:41:13.632Z,65.34
2019-04-05T05:44:01.459Z,65.31
2019-04-05T05:46:49.297Z,64.98
2019-04-05T05:49:36.919Z,64.65
2019-04-05T05:52:25.261Z,64.32
2019-04-05T05:55:12.808Z,64.63
2019-04-05T05:58:00.432Z,64.44
2019-04-05T06:00:48.079Z,64.48
2019-04-05T06:03:35.505Z,63.86
2019-04-05T06:06:22.873Z,63.65
2019-04-05T06:09:10.265Z,63.25
2019-04-05T06:11:58.117Z,63.78
2019-04-05T06:14:45.338Z,63.62
2019-04-05T06:17:32.504Z,63.58
2019-04-05T06:20:20.285Z,63.41
2019-04-05T06:23:08.129Z,63.32
2019-04-05T06:25:55.574Z,63.22
2019-04-05T06:28:42.720Z,63.06
2019-04-05T06:31:29.971Z,62.57
2019-04-05T06:34:17.524Z,62.36
2019-04-05T06:37:05.281Z,62.00
2019-04-05T06:39:52.670Z,62.79
2019-04-05T06:42:40.347Z,63.14
2019-04-05T06:45:27.818Z,63.22
2019-04-05T06:48:19.298Z,63.33
2019-04-05T06:51:04.673Z,62.85
2019-04-05T06:53:52.288Z,62.54
2019-04-05T06:56:39.745Z,62.13
2019-04-05T06:59:27.325Z,61.49
2019-04-05T07:02:14.943Z,61.78
2019-04-05T07:05:02.594Z,61.37
2019-04-05T07:07:49.697Z,61.41
2019-04-05T07:10:37.903Z,60.11
2019-04-05T07:13:27.475Z,60.46
2019-04-05T07:16:14.447Z,61.22
2019-04-05T07:19:02.188Z,61.91
2019-04-05T07:21:50.231Z,60.54
2019-04-05T07:24:37.794Z,61.17
2019-04-05T07:27:25.250Z,59.06
2019-04-05T07:30:12.683Z,60.11
2019-04-05T07:33:00.309Z,58.96
2019-04-05T07:35:47.967Z,58.46
2019-04-05T07:38:35.479Z,57.87
2019-04-05T07:41:22.916Z,59.19
2019-04-05T07:44:10.345Z,59.33
2019-04-05T07:46:58.027Z,58.22
2019-04-05T07:49:45.367Z,57.08
2019-04-05T07:52:32.501Z,56.27
2019-04-05T07:55:20.240Z,55.50
2019-04-05T07:58:07.765Z,54.54
2019-04-05T08:00:56.404Z,55.14
2019-04-05T08:03:43.856Z,55.72
2019-04-05T08:06:32.662Z,55.82
2019-04-05T08:09:20.578Z,56.10
2019-04-05T08:12:08.410Z,55.01
2019-04-05T08:14:56.094Z,55.70
2019-04-05T08:17:43.428Z,55.81
2019-04-05T08:20:30.945Z,55.18
2019-04-05T08:23:18.308Z,55.03
2019-04-05T08:26:05.726Z,55.02
2019-04-05T08:28:53.510Z,55.03
2019-04-05T08:31:41.093Z,53.66
2019-04-05T08:34:28.457Z,54.57
2019-04-05T08:37:16.045Z,51.89
2019-04-05T08:40:03.456Z,52.50
2019-04-05T08:42:51.271Z,51.34
2019-04-05T08:45:38.874Z,52.72
2019-04-05T08:48:26.707Z,52.07
2019-04-05T08:51:14.501Z,50.61
2019-04-05T08:54:01.910Z,51.05
2019-04-05T08:56:49.945Z,52.32
2019-04-05T08:59:37.664Z,50.14
2019-04-05T09:02:25.126Z,51.01
2019-04-05T09:05:13.116Z,51.55
2019-04-05T09:08:00.356Z,49.83
2019-04-05T09:10:47.607Z,50.21
2019-04-05T09:13:35.223Z,50.34
2019-04-05T09:16:22.476Z,49.67
2019-04-05T09:19:22.750Z,49.96
2019-04-05T09:21:59.406Z,48.07
2019-04-05T09:24:47.341Z,49.91
2019-04-05T09:27:34.701Z,49.73
2019-04-05T09:30:22.586Z,50.58
2019-04-05T09:33:09.790Z,51.22
2019-04-05T09:35:57.178Z,52.48
2019-04-05T09:38:44.379Z,51.13
2019-04-05T09:41:32.331Z,50.24
2019-04-05T09:44:20.098Z,50.35
2019-04-05T09:47:07.289Z,50.06
2019-04-05T09:49:54.293Z,49.72
2019-04-05T09:52:42.103Z,50.49
2019-04-05T09:55:29.469Z,51.43
2019-04-05T09:58:17.137Z,52.28
2019-04-05T10:01:04.887Z,52.94
2019-04-05T10:03:52.637Z,51.97
2019-04-05T10:06:40.017Z,51.31
2019-04-05T10:09:27.680Z,52.57
2019-04-05T10:12:15.667Z,52.69
2019-04-05T10:15:02.774Z,51.56
2019-04-05T10:17:50.628Z,51.30
2019-04-05T10:20:39.091Z,51.50
2019-04-05T10:23:27.318Z,50.66
2019-04-05T10:26:14.953Z,50.26
2019-04-05T10:29:02.362Z,51.34
2019-04-05T10:31:49.932Z,51.20
2019-04-05T10:34:37.162Z,50.10
2019-04-05T10:37:24.799Z,47.30
2019-04-05T10:40:13.384Z,47.42
2019-04-05T10:43:01.614Z,45.10
2019-04-05T10:45:49.031Z,45.19
2019-04-05T10:48:36.827Z,44.98
2019-04-05T10:51:26.362Z,45.95
2019-04-05T10:54:13.844Z,45.37
2019-04-05T10:57:01.507Z,45.62
2019-04-05T10:59:48.877Z,46.22
2019-04-05T11:02:36.203Z,45.56
2019-04-05T11:05:23.484Z,45.26
2019-04-05T11:08:11.222Z,44.82
2019-04-05T11:10:58.571Z,45.41
2019-04-05T11:13:45.923Z,44.04
2019-04-05T11:16:33.348Z,44.07
2019-04-05T11:19:21.065Z,44.22
2019-04-05T11:22:08.880Z,44.60
2019-04-05T11:24:56.019Z,44.88
2019-04-05T11:27:43.879Z,44.55
2019-04-05T11:30:42.682Z,44.24
2019-04-05T11:33:30.308Z,43.32
2019-04-05T11:36:18.144Z,42.26
2019-04-05T11:39:07.876Z,44.19
2019-04-05T11:41:56.636Z,42.42
2019-04-05T11:44:44.402Z,42.58
2019-04-05T11:47:32.140Z,43.46
2019-04-05T11:50:20.049Z,44.80
2019-04-05T11:53:07.752Z,43.93
2019-04-05T11:55:55.288Z,43.26
2019-04-05T11:58:45.181Z,43.01
2019-04-05T12:01:51.552Z,43.44
2019-04-05T12:04:38.883Z,43.42
2019-04-05T12:07:27.486Z,43.67
2019-04-05T12:10:18.729Z,44.01
2019-04-05T12:13:04.057Z,43.49
2019-04-05T12:15:51.942Z,43.55
2019-04-05T12:18:39.761Z,42.97
2019-04-05T12:21:27.539Z,44.30
2019-04-05T12:24:15.363Z,44.35
2019-04-05T12:27:04.843Z,44.44
2019-04-05T12:29:51.959Z,44.23
2019-04-05T12:32:41.546Z,43.83
2019-04-05T12:35:29.287Z,42.97
2019-04-05T12:38:31.569Z,42.79
2019-04-05T12:41:19.293Z,43.35
2019-04-05T12:44:06.678Z,42.63
2019-04-05T12:46:54.076Z,43.31
2019-04-05T12:49:41.390Z,43.02
2019-04-05T12:52:29.069Z,42.47
2019-04-05T12:55:16.629Z,41.46
2019-04-05T12:58:03.779Z,41.07
2019-04-05T13:00:51.276Z,42.13
2019-04-05T13:03:39.012Z,45.18
2019-04-05T13:06:26.630Z,45.58
2019-04-05T13:09:14.674Z,44.64
2019-04-05T13:12:02.181Z,44.11
2019-04-05T13:14:49.205Z,44.90
2019-04-05T13:17:37.073Z,45.56
2019-04-05T13:20:25.022Z,45.53
2019-04-05T13:23:12.928Z,45.69
2019-04-05T13:26:00.919Z,45.99
2019-04-05T13:28:49.185Z,46.31
2019-04-05T13:31:36.965Z,45.42
2019-04-05T13:34:25.890Z,46.06
2019-04-05T13:37:20.258Z,45.79
2019-04-05T13:40:02.875Z,45.78
2019-04-05T13:42:50.942Z,45.99
2019-04-05T13:45:38.898Z,45.83
2019-04-05T13:48:26.582Z,45.69
2019-04-05T13:51:14.024Z,44.97
2019-04-05T13:54:01.923Z,44.55
2019-04-05T13:56:49.841Z,44.50
2019-04-05T13:59:37.213Z,45.17
2019-04-05T14:02:24.672Z,44.27
2019-04-05T14:05:12.800Z,44.62
2019-04-05T14:08:09.785Z,43.47
2019-04-05T14:10:49.360Z,43.59
2019-04-05T14:13:42.127Z,43.92
2019-04-05T14:16:26.779Z,43.45
2019-04-05T14:19:18.296Z,43.78
2019-04-05T14:22:08.931Z,44.28
2019-04-05T14:24:56.573Z,43.67
2019-04-05T14:27:42.392Z,43.23
2019-04-05T14:30:32.463Z,42.65
2019-04-05T14:33:18.979Z,43.36
2019-04-05T14:36:06.968Z,43.49
2019-04-05T14:38:54.814Z,44.08
2019-04-05T14:41:41.912Z,43.72
2019-04-05T14:44:29.565Z,44.03
2019-04-05T14:47:19.765Z,43.49
2019-04-05T14:50:07.145Z,43.30
2019-04-05T14:52:54.756Z,44.21
2019-04-05T14:55:42.299Z,43.07
2019-04-05T14:58:29.416Z,43.06
2019-04-05T15:01:17.514Z,41.72
2019-04-05T15:04:05.177Z,41.66
2019-04-05T15:06:52.896Z,42.49
2019-04-05T15:09:39.955Z,41.85
2019-04-05T15:12:29.086Z,41.80
2019-04-05T15:15:17.127Z,42.27
2019-04-05T15:18:04.654Z,42.34
2019-04-05T15:20:52.054Z,41.85
2019-04-05T15:23:41.271Z,41.18
2019-04-05T15:26:28.052Z,41.78
2019-04-05T15:29:15.401Z,41.88
2019-04-05T15:32:02.787Z,41.40
2019-04-05T15:34:50.319Z,41.58
2019-04-05T15:37:37.982Z,42.29
2019-04-05T15:40:25.427Z,42.06
2019-04-05T15:43:13.212Z,42.80
2019-04-05T15:46:00.920Z,43.07
2019-04-05T15:48:51.480Z,44.05
2019-04-05T15:51:37.649Z,43.98
2019-04-05T15:54:29.123Z,43.80
2019-04-05T15:57:16.829Z,42.92
2019-04-05T16:00:06.132Z,42.91
2019-04-05T16:02:53.333Z,43.74
2019-04-05T16:05:41.757Z,43.12
2019-04-05T16:08:29.570Z,43.37
2019-04-05T16:11:16.941Z,42.77
2019-04-05T16:14:04.477Z,42.36
2019-04-05T16:16:53.670Z,42.87
2019-04-05T16:19:41.789Z,42.64
2019-04-05T16:22:31.418Z,42.32
2019-04-05T16:25:18.157Z,42.63
2019-04-05T16:28:05.692Z,42.94
2019-04-05T16:30:53.770Z,41.79
2019-04-05T16:33:41.130Z,42.62
2019-04-05T16:36:31.017Z,41.46
2019-04-05T16:39:19.275Z,42.18
2019-04-05T16:42:06.643Z,41.90
2019-04-05T16:44:54.179Z,42.71
2019-04-05T16:47:41.580Z,42.11
2019-04-05T16:50:28.811Z,41.81
2019-04-05T16:53:16.594Z,42.67
2019-04-05T16:56:03.780Z,42.85
2019-04-05T16:58:52.387Z,42.45
2019-04-05T17:01:39.846Z,43.04
2019-04-05T17:04:27.464Z,43.81
2019-04-05T17:07:14.847Z,44.06
2019-04-05T17:10:02.250Z,43.33
2019-04-05T17:12:50.025Z,43.62
2019-04-05T17:15:37.593Z,44.80
2019-04-05T17:18:25.067Z,44.55
2019-04-05T17:21:12.642Z,44.78
2019-04-05T17:24:00.189Z,45.25
2019-04-05T17:26:47.829Z,45.88
2019-04-05T17:29:35.715Z,46.42
2019-04-05T17:32:23.121Z,47.18
2019-04-05T17:35:10.988Z,48.58
2019-04-05T17:37:58.104Z,47.76
2019-04-05T17:40:45.590Z,47.52
2019-04-05T17:43:33.125Z,47.77
2019-04-05T17:46:20.583Z,48.26
2019-04-05T17:49:08.393Z,48.50
2019-04-05T17:51:56.346Z,48.58
2019-04-05T17:54:43.560Z,49.11
2019-04-05T17:57:30.999Z,49.79
2019-04-05T18:00:22.345Z,49.89
2019-04-05T18:03:09.653Z,50.01
2019-04-05T18:05:57.226Z,50.34
2019-04-05T18:08:44.878Z,50.44
2019-04-05T18:11:32.505Z,50.58
2019-04-05T18:14:19.973Z,51.03
2019-04-05T18:17:07.622Z,50.73
2019-04-05T18:19:55.921Z,51.56
2019-04-05T18:22:43.410Z,51.48
2019-04-05T18:25:30.858Z,51.97
2019-04-05T18:28:18.657Z,51.73
2019-04-05T18:31:06.024Z,51.72
2019-04-05T18:33:54.288Z,51.76
2019-04-05T18:36:41.400Z,51.92
2019-04-05T18:39:28.824Z,52.09
2019-04-05T18:42:16.248Z,52.17
2019-04-05T18:45:03.866Z,53.02
2019-04-05T18:47:51.800Z,53.04
2019-04-05T18:50:39.192Z,53.05
2019-04-05T18:53:37.003Z,52.83
2019-04-05T18:56:16.093Z,52.80
2019-04-05T18:59:03.749Z,52.33
2019-04-05T19:01:51.185Z,52.78
2019-04-05T19:04:38.308Z,52.87
2019-04-05T19:07:26.034Z,53.38
2019-04-05T19:10:14.001Z,53.56
2019-04-05T19:13:01.641Z,54.20
2019-04-05T19:15:49.688Z,54.39
2019-04-05T19:18:37.747Z,54.84
2019-04-05T19:21:25.349Z,55.17
2019-04-05T19:24:12.737Z,55.55
2019-04-05T19:27:00.277Z,55.97
2019-04-05T19:29:47.805Z,55.86
2019-04-05T19:49:31.049Z,56.47
2019-04-05T19:52:18.708Z,56.66
2019-04-05T19:55:06.989Z,56.90
2019-04-05T19:57:54.703Z,57.09
2019-04-05T20:00:42.199Z,57.04
2019-04-05T20:03:29.612Z,57.43
2019-04-05T20:06:17.047Z,57.09
2019-04-05T20:09:06.706Z,57.17
2019-04-05T20:11:54.064Z,57.12
2019-04-05T20:14:41.599Z,57.21
2019-04-05T20:17:29.266Z,57.17
2019-04-05T20:20:17.033Z,56.94
2019-04-05T20:23:05.120Z,57.41
2019-04-05T20:25:52.742Z,58.47
2019-04-05T20:28:40.471Z,58.95
2019-04-05T20:31:27.986Z,59.60
2019-04-05T20:34:15.621Z,58.92
2019-04-05T20:37:03.002Z,58.50
2019-04-05T20:39:50.896Z,58.87
2019-04-05T20:42:37.980Z,59.77
2019-04-05T20:45:25.653Z,60.00
2019-04-05T20:48:13.425Z,60.20
2019-04-05T20:51:00.987Z,60.26
2019-04-05T20:53:48.429Z,60.43
2019-04-05T20:56:36.354Z,60.17
2019-04-05T20:59:23.952Z,60.26
2019-04-05T21:02:11.403Z,59.98
2019-04-05T21:04:58.502Z,60.07
2019-04-05T21:07:45.929Z,60.64
2019-04-05T21:10:33.692Z,60.05
2019-04-05T21:13:20.840Z,59.77
2019-04-05T21:16:08.190Z,59.86
2019-04-05T21:18:55.558Z,60.43
2019-04-05T21:21:43.237Z,60.84
2019-04-05T21:24:36.036Z,60.91
2019-04-05T21:27:19.664Z,61.49
2019-04-05T21:30:07.524Z,60.79
2019-04-05T21:32:55.255Z,61.23
2019-04-05T21:35:42.977Z,61.86
2019-04-05T21:38:30.394Z,62.05
2019-04-05T21:41:17.933Z,62.02
2019-04-05T21:44:05.381Z,62.54
2019-04-05T21:46:53.741Z,62.55
2019-04-05T21:49:41.409Z,61.71
2019-04-05T21:52:29.337Z,61.12
2019-04-05T21:55:16.606Z,61.39
2019-04-05T21:58:04.032Z,62.01
2019-04-05T22:00:55.256Z,62.05
2019-04-05T22:03:42.772Z,62.09
2019-04-05T22:06:29.901Z,62.48
2019-04-05T22:09:17.435Z,62.06
2019-04-05T22:12:05.226Z,61.93
2019-04-05T22:14:52.528Z,62.07
2019-04-05T22:17:40.182Z,61.96
2019-04-05T22:20:27.841Z,61.50
2019-04-05T22:23:15.310Z,61.60
2019-04-05T22:26:03.141Z,62.13
2019-04-05T22:28:50.925Z,62.39
2019-04-05T22:31:38.316Z,61.91
2019-04-05T22:34:25.844Z,61.82
2019-04-05T22:37:13.582Z,62.40
2019-04-05T22:40:01.035Z,62.23
2019-04-05T22:42:48.532Z,62.23
2019-04-05T22:45:36.039Z,61.96
2019-04-05T22:48:23.811Z,62.24
2019-04-05T22:51:11.178Z,62.47
2019-04-05T22:53:58.865Z,62.85
2019-04-05T22:56:46.444Z,63.00
2019-04-05T22:59:34.567Z,63.34
2019-04-05T23:02:22.049Z,63.00
2019-04-05T23:05:09.612Z,63.34
2019-04-05T23:07:56.735Z,63.11
2019-04-05T23:10:44.219Z,63.48
2019-04-05T23:13:31.337Z,63.47
2019-04-05T23:16:18.821Z,63.30
2019-04-05T23:19:06.838Z,63.43
2019-04-05T23:21:53.913Z,63.65
2019-04-05T23:24:41.629Z,64.48
2019-04-05T23:27:29.152Z,64.96
2019-04-05T23:30:18.205Z,63.98
2019-04-05T23:33:05.982Z,64.08
2019-04-05T23:35:53.888Z,63.42
2019-04-05T23:38:41.397Z,63.23
2019-04-05T23:41:28.917Z,63.37
2019-04-05T23:44:16.465Z,63.15
2019-04-05T23:47:04.264Z,64.04
2019-04-05T23:49:51.674Z,64.03
2019-04-05T23:52:39.606Z,64.36
2019-04-05T23:55:33.083Z,64.41
2019-04-05T23:58:16.834Z,63.87
